Anchorage/Elmendorf AFB, Alaska
Current Conditions -  °F | °C
As of 10:58 PM on Friday 28 Nov 2014 (Local Time) from PAED Reporting Station
Overcast Overcast  
Wind Chill: 14°   Ceiling: 3800
Heat Index: 21°   Visibility: 10mi
Dew Point: 16°   Wind: 6mph
Humidity: 80%   Direction: 50°NE
Pressure: 30.14"   Gusts: NA
Location:  61.25°N, 149.79°W
Report Text: PAED 290758Z AUTO 05005KT 10SM OVC038 M06/M09 A3014 RMK AO2 SLP205 T10591089
Loading
Personal Weather Stations






























Interactive Weather Map New forecast layout! Learn more

10-Day Weather Forecast

Advertisements
Track Severe Weather on mobile